Terminal Aerodrome Forecast
Issued by NWS

Home | Current Version | Previous Version | Text Only | Print | Product List | Glossary On
Versions: 1 2 3 4 5 6 7 8 9 10 11 12 13 14 15 16 17 18 19 20
000
FTUS43 KBIS 180903 AAA
TAFDIK
TAF AMD
KDIK 180903Z 1809/1906 32015KT P6SM SCT025 SCT100
      TEMPO 1809/1811 BKN025
     FM181300 31013KT P6SM SCT200
     FM190000 25007KT P6SM SKC=

USA.gov is the U.S. government's official web portal to all federal, state and local government web resources and services.